Time;durP1;ratioP1;P1;durP2;ratioP2;P2;SDS_P1;SDS_P2;PMS_P1;PMS_P2;Temp;Humidity;BMP_temperature;BMP_pressure;BME280_temperature;BME280_humidity;BME280_pressure;Samples;Min_cycle;Max_cycle;Signal;HPM_P1;HPM_P2
2023/10/31 00:01:24;;;;;;;31.10;13.50;;;;;;;19.43;47.70;99878.42;108071;1254;59643;-65
2023/10/31 00:03:51;;;;;;;31.90;14.80;;;;;;;19.61;47.25;99873.32;108025;1254;73040;-66
2023/10/31 00:06:19;;;;;;;27.10;14.00;;;;;;;19.68;47.16;99868.14;108046;1253;69987;-67
2023/10/31 00:08:46;;;;;;;29.60;13.90;;;;;;;19.76;46.79;99867.55;108027;1257;72756;-66
2023/10/31 00:11:13;;;;;;;30.70;14.00;;;;;;;19.71;46.75;99870.95;108044;1256;61686;-66
2023/10/31 00:13:41;;;;;;;29.80;13.40;;;;;;;19.71;46.75;99862.58;108078;1253;59974;-67
2023/10/31 00:16:09;;;;;;;34.80;14.20;;;;;;;19.76;46.52;99860.38;108084;1254;73081;-66
2023/10/31 00:18:37;;;;;;;28.50;13.60;;;;;;;19.54;46.92;99859.98;108037;1254;69482;-67
2023/10/31 00:21:05;;;;;;;26.60;13.00;;;;;;;19.34;47.37;99861.71;108097;1257;72662;-65
2023/10/31 00:23:33;;;;;;;31.20;14.50;;;;;;;19.37;47.32;99854.90;108067;1255;61674;-67
2023/10/31 00:26:00;;;;;;;26.60;13.70;;;;;;;19.34;47.26;99854.36;108070;1254;59877;-67
2023/10/31 00:28:27;;;;;;;33.30;14.10;;;;;;;19.30;47.39;99856.86;108088;1253;73087;-66
2023/10/31 00:30:55;;;;;;;30.60;14.20;;;;;;;19.60;46.74;99849.70;108186;1254;70061;-67
2023/10/31 00:33:22;;;;;;;27.60;13.10;;;;;;;19.27;47.20;99851.88;108040;1254;72718;-66
2023/10/31 00:35:50;;;;;;;32.40;15.10;;;;;;;19.29;47.25;99851.98;107898;1253;61666;-66
2023/10/31 00:38:17;;;;;;;32.40;14.20;;;;;;;19.34;47.18;99843.55;108094;1254;60378;-67
2023/10/31 00:40:45;;;;;;;35.30;15.30;;;;;;;19.31;47.17;99837.92;107952;1254;73013;-66
2023/10/31 00:43:12;;;;;;;37.10;15.50;;;;;;;19.17;47.32;99836.33;108063;1254;68761;-68
2023/10/31 00:45:40;;;;;;;28.80;12.70;;;;;;;19.18;47.46;99832.38;108089;1254;72505;-66
2023/10/31 00:48:07;;;;;;;32.80;14.70;;;;;;;19.24;47.22;99826.17;108079;1254;60444;-66
2023/10/31 00:50:35;;;;;;;31.00;14.00;;;;;;;19.26;47.17;99824.60;108104;1254;59390;-67
2023/10/31 00:53:02;;;;;;;35.40;15.40;;;;;;;19.31;46.98;99828.63;108128;1254;71836;-66
2023/10/31 00:55:30;;;;;;;34.30;15.20;;;;;;;19.22;47.16;99824.54;108233;1252;70212;-66
2023/10/31 00:57:57;;;;;;;29.40;13.80;;;;;;;19.17;47.06;99821.89;108033;1253;72447;-64
2023/10/31 01:00:25;;;;;;;38.70;15.80;;;;;;;19.11;47.23;99825.82;108020;1257;60447;-65
2023/10/31 01:02:53;;;;;;;38.20;16.00;;;;;;;19.08;47.28;99825.64;108155;1254;60363;-67
2023/10/31 01:05:21;;;;;;;35.20;16.70;;;;;;;18.91;47.58;99825.70;108105;1253;71425;-66
2023/10/31 01:07:49;;;;;;;33.30;14.80;;;;;;;18.89;47.65;99832.39;108084;1252;70323;-66
2023/10/31 01:10:16;;;;;;;31.50;15.10;;;;;;;18.85;47.80;99833.76;108032;1257;73051;-66
2023/10/31 01:12:44;;;;;;;35.50;15.70;;;;;;;18.79;47.83;99836.02;108121;1254;61683;-66
2023/10/31 01:15:11;;;;;;;33.60;16.00;;;;;;;18.78;47.96;99830.06;108048;1253;59516;-66
2023/10/31 01:17:38;;;;;;;28.20;15.00;;;;;;;18.68;48.28;99831.32;107941;1254;73126;-66
2023/10/31 01:20:07;;;;;;;40.10;16.60;;;;;;;18.56;48.48;99835.59;108142;1254;70469;-66
2023/10/31 01:22:34;;;;;;;28.20;15.50;;;;;;;18.55;48.42;99836.21;108037;1254;73061;-66
2023/10/31 01:25:02;;;;;;;31.60;14.50;;;;;;;18.54;48.51;99838.01;108119;1254;61654;-66
2023/10/31 01:27:29;;;;;;;39.40;16.50;;;;;;;18.35;48.98;99835.75;108185;1253;60029;-66
2023/10/31 01:29:57;;;;;;;29.60;13.70;;;;;;;18.34;49.01;99835.08;108038;1254;73327;-66
2023/10/31 01:32:25;;;;;;;36.90;17.40;;;;;;;18.37;49.03;99834.51;108056;1254;69152;-66
2023/10/31 01:34:52;;;;;;;37.30;16.50;;;;;;;18.51;48.84;99830.96;108069;1254;73078;-66
2023/10/31 01:37:21;;;;;;;30.30;16.30;;;;;;;18.43;49.09;99836.70;108046;1254;61628;-66
2023/10/31 01:39:48;;;;;;;38.40;18.30;;;;;;;18.44;49.25;99847.46;108033;1254;59637;-66
2023/10/31 01:42:16;;;;;;;31.30;15.60;;;;;;;18.38;49.38;99836.90;108034;1254;70908;-66
2023/10/31 01:44:44;;;;;;;33.70;16.90;;;;;;;18.16;49.70;99834.80;107923;1253;69014;-66
2023/10/31 01:47:11;;;;;;;37.00;17.00;;;;;;;18.32;49.46;99832.55;108051;1254;72629;-66
2023/10/31 01:49:39;;;;;;;33.30;14.80;;;;;;;18.39;49.24;99832.89;108013;1257;60379;-67
2023/10/31 01:52:06;;;;;;;33.90;16.60;;;;;;;18.31;49.35;99839.95;108053;1253;59608;-66
2023/10/31 01:54:34;;;;;;;29.80;14.60;;;;;;;18.24;49.46;99843.66;108051;1254;73055;-68
2023/10/31 01:57:02;;;;;;;39.30;16.90;;;;;;;18.25;49.38;99843.34;108022;1253;70278;-65
2023/10/31 01:59:30;;;;;;;43.10;18.50;;;;;;;18.20;49.11;99846.79;107995;1255;71472;-66
2023/10/31 02:01:57;;;;;;;39.70;18.90;;;;;;;18.11;49.30;99850.48;108077;1253;60947;-65
2023/10/31 02:04:25;;;;;;;39.70;18.90;;;;;;;18.01;49.45;99848.89;108209;1255;60323;-66
2023/10/31 02:06:52;;;;;;;38.60;18.10;;;;;;;17.86;49.76;99849.46;108099;1254;73274;-65
2023/10/31 02:09:23;;;;;;;33.80;16.10;;;;;;;17.88;49.80;99845.53;107980;1254;70684;-65
2023/10/31 02:11:51;;;;;;;38.30;17.20;;;;;;;17.86;49.77;99841.61;108075;1254;72731;-66
2023/10/31 02:14:18;;;;;;;43.70;18.30;;;;;;;17.65;50.04;99841.42;108014;1254;60515;-66
2023/10/31 02:16:46;;;;;;;40.00;17.80;;;;;;;17.61;50.20;99839.77;107976;1254;60007;-67
2023/10/31 02:19:13;;;;;;;42.40;18.20;;;;;;;17.71;50.10;99847.83;108024;1254;73869;-66
2023/10/31 02:21:41;;;;;;;40.40;16.60;;;;;;;17.70;50.03;99848.19;107835;1260;70055;-65
2023/10/31 02:24:08;;;;;;;41.90;18.00;;;;;;;17.88;49.65;99853.56;108050;1254;72237;-65
2023/10/31 02:26:37;;;;;;;34.90;14.80;;;;;;;17.73;49.79;99851.92;108078;1254;61682;-65
2023/10/31 02:29:06;;;;;;;34.30;16.20;;;;;;;17.63;49.94;99849.42;107988;1256;60552;-65
2023/10/31 02:31:34;;;;;;;37.50;16.30;;;;;;;17.52;50.05;99845.79;108045;1254;72959;-62
2023/10/31 02:34:03;;;;;;;32.00;15.30;;;;;;;17.31;50.45;99849.36;108038;1253;69602;-65
2023/10/31 02:36:31;;;;;;;35.80;17.10;;;;;;;17.14;50.93;99848.59;108096;1254;72699;-66
2023/10/31 02:38:59;;;;;;;37.60;16.20;;;;;;;17.21;50.84;99841.55;108052;1254;61936;-66
2023/10/31 02:41:26;;;;;;;33.90;14.20;;;;;;;17.15;50.92;99840.85;108060;1253;60331;-66
2023/10/31 02:43:55;;;;;;;34.20;16.90;;;;;;;17.06;51.24;99837.79;108012;1254;72787;-67
2023/10/31 02:46:23;;;;;;;29.90;14.10;;;;;;;17.03;51.27;99838.54;108053;1254;68759;-66
2023/10/31 02:48:50;;;;;;;39.00;16.80;;;;;;;16.96;51.40;99836.83;108040;1254;72453;-65
2023/10/31 02:51:18;;;;;;;32.60;15.60;;;;;;;16.93;51.53;99838.81;108019;1254;61673;-67
2023/10/31 02:53:45;;;;;;;36.90;16.50;;;;;;;16.85;51.91;99836.00;108070;1254;61395;-66
2023/10/31 02:56:12;;;;;;;40.20;17.20;;;;;;;16.75;52.32;99833.42;108085;1254;74189;-65
2023/10/31 02:58:40;;;;;;;31.60;17.00;;;;;;;16.70;52.90;99836.27;108070;1254;69409;-66
2023/10/31 03:01:07;;;;;;;30.50;15.70;;;;;;;16.63;53.37;99841.01;108065;1254;71698;-65
2023/10/31 03:03:35;;;;;;;40.30;18.10;;;;;;;16.72;53.18;99839.70;108157;1253;60386;-66
2023/10/31 03:06:04;;;;;;;37.30;17.30;;;;;;;16.75;52.78;99838.05;108105;1252;59559;-65
2023/10/31 03:08:31;;;;;;;35.10;17.00;;;;;;;16.76;52.78;99835.82;108054;1254;73831;-65
2023/10/31 03:10:59;;;;;;;40.40;17.70;;;;;;;16.67;53.02;99832.77;108018;1254;70327;-65
2023/10/31 03:13:26;;;;;;;36.00;18.50;;;;;;;16.63;53.52;99831.98;108099;1254;72968;-65
2023/10/31 03:15:54;;;;;;;36.40;19.30;;;;;;;16.67;53.42;99829.75;108161;1254;61644;-65
2023/10/31 03:18:22;;;;;;;39.00;18.50;;;;;;;16.67;53.67;99828.35;108180;1256;60262;-65
2023/10/31 03:20:49;;;;;;;36.80;18.50;;;;;;;16.75;53.54;99828.30;108108;1253;72551;-65
2023/10/31 03:23:16;;;;;;;38.80;18.40;;;;;;;16.75;53.55;99828.70;108067;1257;69104;-66
2023/10/31 03:25:45;;;;;;;34.80;17.70;;;;;;;16.72;53.67;99829.08;108098;1254;71525;-65
2023/10/31 03:28:20;;;;;;;41.60;18.80;;;;;;;16.73;53.48;99828.66;108072;1254;61803;-64
2023/10/31 03:30:47;;;;;;;40.60;18.10;;;;;;;16.82;53.15;99832.11;109290;1252;58794;-66
2023/10/31 03:33:16;;;;;;;44.50;18.00;;;;;;;16.67;53.62;99833.12;109399;1253;73882;-67
2023/10/31 03:35:44;;;;;;;38.20;18.70;;;;;;;16.77;53.31;99835.65;109214;1253;69943;-66
2023/10/31 03:38:12;;;;;;;35.70;16.70;;;;;;;16.80;53.10;99840.42;109409;1252;72422;-66
2023/10/31 03:40:40;;;;;;;35.90;18.00;;;;;;;17.01;52.62;99834.70;109316;1254;61617;-65
2023/10/31 03:43:07;;;;;;;34.90;17.30;;;;;;;17.23;51.90;99836.20;109296;1254;59998;-66
2023/10/31 03:45:35;;;;;;;36.20;17.70;;;;;;;17.30;51.62;99835.02;109241;1254;72581;-67
2023/10/31 03:48:02;;;;;;;37.40;18.00;;;;;;;17.23;51.71;99834.83;109289;1254;70297;-66
2023/10/31 03:50:30;;;;;;;42.70;17.40;;;;;;;17.19;51.68;99829.10;109231;1252;71685;-67
2023/10/31 03:52:58;;;;;;;38.70;18.00;;;;;;;17.11;52.00;99833.66;109312;1252;61706;-65
2023/10/31 03:55:25;;;;;;;40.50;17.80;;;;;;;17.08;51.93;99833.53;109372;1252;59319;-66
2023/10/31 03:57:52;;;;;;;32.90;16.40;;;;;;;17.18;51.67;99831.06;109251;1253;72080;-66
2023/10/31 04:00:20;;;;;;;37.80;18.60;;;;;;;17.19;51.70;99831.73;109244;1253;68865;-66
2023/10/31 04:02:47;;;;;;;37.40;17.40;;;;;;;17.13;51.71;99831.63;109257;1253;72434;-66
2023/10/31 04:05:15;;;;;;;35.20;17.50;;;;;;;17.06;51.70;99832.14;109189;1253;61760;-67
2023/10/31 04:07:43;;;;;;;45.30;20.00;;;;;;;16.98;51.92;99834.02;109098;1253;60139;-65
2023/10/31 04:10:10;;;;;;;41.20;18.10;;;;;;;16.87;52.05;99835.66;109244;1253;73939;-66
2023/10/31 04:12:38;;;;;;;47.20;19.50;;;;;;;16.81;52.20;99843.86;109264;1253;69179;-66
2023/10/31 04:15:05;;;;;;;41.40;17.90;;;;;;;16.90;52.05;99846.50;109229;1254;71598;-66
2023/10/31 04:17:33;;;;;;;40.10;18.70;;;;;;;16.88;51.91;99845.73;109241;1253;60553;-67
2023/10/31 04:20:01;;;;;;;40.40;18.10;;;;;;;16.81;51.99;99841.91;109222;1253;58755;-66
2023/10/31 04:22:28;;;;;;;35.00;15.80;;;;;;;16.84;52.04;99835.55;109258;1253;74172;-66
2023/10/31 04:28:29;;;;;;;46.20;17.50;;;;;;;17.05;51.65;99830.89;104839;1289;600417;-66
2023/10/31 04:30:55;;;;;;;39.70;18.40;;;;;;;17.02;51.63;99831.48;107395;1264;59325;-66
2023/10/31 04:33:22;;;;;;;39.40;18.70;;;;;;;17.18;51.15;99824.04;107347;1264;59244;-67
2023/10/31 04:35:48;;;;;;;37.10;17.00;;;;;;;17.36;50.61;99821.30;107335;1263;59244;-66
2023/10/31 04:38:15;;;;;;;38.40;16.30;;;;;;;17.35;50.54;99819.28;107384;1263;59145;-66
2023/10/31 04:40:42;;;;;;;39.80;17.80;;;;;;;17.26;50.64;99824.66;107247;1263;209505;-67
2023/10/31 04:43:09;;;;;;;39.00;17.30;;;;;;;17.32;50.59;99829.59;107434;1267;61697;-66
2023/10/31 04:45:35;;;;;;;33.90;16.90;;;;;;;17.46;50.10;99834.13;107507;1262;60370;-65
2023/10/31 04:48:02;;;;;;;34.90;16.50;;;;;;;17.59;49.93;99840.14;107518;1262;72036;-67
2023/10/31 04:50:29;;;;;;;36.60;16.20;;;;;;;17.75;49.36;99837.00;107522;1264;70243;-66
2023/10/31 04:52:55;;;;;;;38.00;17.40;;;;;;;17.90;49.03;99842.91;108070;1253;59715;-67
2023/10/31 04:55:22;;;;;;;37.10;16.00;;;;;;;17.91;48.85;99842.83;108010;1254;59171;-66
2023/10/31 04:57:48;;;;;;;38.60;15.60;;;;;;;17.95;48.71;99842.77;108012;1259;60317;-66
2023/10/31 05:00:15;;;;;;;37.60;17.70;;;;;;;17.74;49.09;99848.77;108002;1259;59913;-68
2023/10/31 05:02:42;;;;;;;36.00;17.70;;;;;;;17.71;49.28;99843.70;108005;1254;70163;-66
2023/10/31 05:05:09;;;;;;;35.00;16.60;;;;;;;17.73;49.22;99840.19;107990;1254;71965;-66
2023/10/31 05:07:36;;;;;;;45.60;18.90;;;;;;;17.73;49.34;99842.13;107862;1254;60880;-68
2023/10/31 05:10:03;;;;;;;41.10;17.10;;;;;;;17.65;49.44;99845.23;107957;1254;60365;-67
2023/10/31 05:12:29;;;;;;;41.40;19.20;;;;;;;17.67;49.45;99846.11;107981;1254;72694;-66
2023/10/31 05:14:56;;;;;;;38.40;18.00;;;;;;;17.73;49.32;99855.26;108032;1254;59317;-66
2023/10/31 05:17:22;;;;;;;46.00;18.50;;;;;;;17.73;49.25;99858.46;108030;1254;72784;-67
2023/10/31 05:19:50;;;;;;;39.60;17.40;;;;;;;17.80;49.17;99855.83;108192;1253;61854;-67
2023/10/31 05:22:16;;;;;;;35.00;17.40;;;;;;;17.88;48.90;99850.33;108246;1251;60746;-67
2023/10/31 05:24:43;;;;;;;42.10;18.30;;;;;;;17.90;48.75;99848.23;108235;1251;71647;-67
2023/10/31 05:27:10;;;;;;;35.80;16.70;;;;;;;18.02;48.49;99844.48;108267;1251;59509;-66
2023/10/31 05:29:38;;;;;;;31.20;16.80;;;;;;;18.02;48.34;99845.60;108295;1251;72191;-68
2023/10/31 05:32:05;;;;;;;36.10;17.70;;;;;;;17.68;48.92;99852.79;108325;1251;62982;-67
2023/10/31 05:34:32;;;;;;;39.50;17.00;;;;;;;17.77;48.93;99854.14;108342;1251;60062;-65
2023/10/31 05:36:59;;;;;;;37.90;17.50;;;;;;;17.90;48.56;99859.11;108256;1251;72787;-66
2023/10/31 05:39:26;;;;;;;50.40;19.40;;;;;;;17.97;48.55;99860.21;108254;1251;70212;-65
2023/10/31 05:41:52;;;;;;;32.10;16.10;;;;;;;18.14;48.08;99857.30;108242;1251;72934;-67
2023/10/31 05:44:19;;;;;;;36.90;16.70;;;;;;;18.18;47.97;99856.65;108255;1251;59496;-67
2023/10/31 05:46:46;;;;;;;43.20;17.60;;;;;;;18.25;47.73;99859.89;108194;1251;60337;-66
2023/10/31 05:49:13;;;;;;;33.90;14.80;;;;;;;18.03;47.69;99864.20;108279;1251;73035;-67
2023/10/31 05:51:39;;;;;;;43.10;18.00;;;;;;;18.31;47.34;99863.05;108276;1251;69978;-66
2023/10/31 05:54:09;;;;;;;34.70;15.50;;;;;;;18.42;47.11;99866.69;108276;1251;72453;-66
2023/10/31 05:56:35;;;;;;;33.80;15.50;;;;;;;18.55;46.95;99867.13;108266;1251;60459;-66
2023/10/31 05:59:02;;;;;;;36.50;15.90;;;;;;;18.57;46.63;99865.73;108271;1251;59471;-66
2023/10/31 06:01:28;;;;;;;33.20;14.20;;;;;;;18.43;46.96;99861.80;108261;1251;72941;-66
2023/10/31 06:03:55;;;;;;;35.90;16.40;;;;;;;18.49;46.86;99861.55;108294;1251;70122;-66
2023/10/31 06:06:22;;;;;;;31.70;15.70;;;;;;;18.53;46.58;99862.64;108264;1251;72901;-69
2023/10/31 06:08:48;;;;;;;40.90;16.50;;;;;;;18.65;46.52;99862.61;108223;1254;61872;-67
2023/10/31 06:11:15;;;;;;;33.80;16.30;;;;;;;18.55;46.77;99861.60;108227;1251;59550;-67
2023/10/31 06:13:42;;;;;;;31.30;15.10;;;;;;;18.66;46.54;99866.86;108273;1251;73033;-66
2023/10/31 06:16:09;;;;;;;33.50;15.80;;;;;;;18.67;46.62;99869.44;108258;1251;70007;-67
2023/10/31 06:18:38;;;;;;;25.60;13.20;;;;;;;18.81;46.32;99864.83;108330;1256;72703;-69
2023/10/31 06:21:05;;;;;;;43.40;16.60;;;;;;;18.66;46.05;99859.77;108226;1251;61888;-66
2023/10/31 06:23:31;;;;;;;40.40;16.40;;;;;;;18.77;45.94;99862.96;108222;1250;60328;-66
2023/10/31 06:25:59;;;;;;;36.50;16.20;;;;;;;18.86;45.95;99866.98;108240;1251;73074;-64
2023/10/31 06:28:25;;;;;;;45.60;16.30;;;;;;;19.12;45.63;99864.13;108269;1251;70887;-66
2023/10/31 06:30:52;;;;;;;31.40;14.60;;;;;;;19.10;45.66;99863.18;108188;1250;59531;-66
2023/10/31 06:33:18;;;;;;;35.00;15.30;;;;;;;19.01;45.68;99862.48;108238;1250;61860;-66
2023/10/31 06:35:45;;;;;;;47.10;16.70;;;;;;;19.10;45.59;99860.36;108282;1252;59981;-66
2023/10/31 06:38:12;;;;;;;34.70;14.50;;;;;;;19.31;45.19;99856.73;108183;1254;59587;-66
2023/10/31 06:40:38;;;;;;;37.90;17.30;;;;;;;19.31;44.40;99854.29;108211;1251;70429;-67
2023/10/31 06:43:05;;;;;;;34.60;15.60;;;;;;;19.37;44.38;99854.67;108214;1251;72295;-66
2023/10/31 06:45:31;;;;;;;38.80;14.70;;;;;;;19.58;43.93;99848.58;108278;1251;62442;-66
2023/10/31 06:47:58;;;;;;;34.30;14.60;;;;;;;19.67;43.66;99846.50;108207;1251;59433;-66
2023/10/31 06:50:25;;;;;;;26.40;13.70;;;;;;;19.66;43.91;99843.00;108215;1254;73143;-67
2023/10/31 06:52:52;;;;;;;34.60;14.80;;;;;;;19.77;43.94;99843.02;108224;1250;70035;-67
2023/10/31 06:55:18;;;;;;;38.00;15.80;;;;;;;19.99;43.56;99843.94;108482;1250;59461;-67
2023/10/31 06:57:45;;;;;;;34.80;13.70;;;;;;;20.32;42.88;99845.73;108455;1251;61371;-66
2023/10/31 07:00:12;;;;;;;34.00;14.30;;;;;;;20.59;42.74;99840.83;108318;1250;60105;-66
2023/10/31 07:02:39;;;;;;;38.80;15.60;;;;;;;20.83;42.04;99843.33;108218;1252;71764;-66
2023/10/31 07:05:06;;;;;;;35.40;14.90;;;;;;;20.83;41.74;99844.17;108259;1250;70118;-67
2023/10/31 07:07:33;;;;;;;32.70;14.60;;;;;;;20.87;41.42;99844.89;108216;1252;71494;-67
2023/10/31 07:10:00;;;;;;;39.60;13.50;;;;;;;20.88;41.51;99839.67;108212;1250;61756;-66
2023/10/31 07:12:27;;;;;;;34.20;15.10;;;;;;;21.02;41.49;99832.73;108234;1250;59627;-67
2023/10/31 07:14:53;;;;;;;35.40;15.00;;;;;;;21.26;41.13;99830.14;108201;1250;72837;-67
2023/10/31 07:17:20;;;;;;;28.60;13.70;;;;;;;21.51;41.27;99825.49;108246;1250;60032;-67
2023/10/31 07:19:47;;;;;;;30.60;14.40;;;;;;;22.45;40.12;99824.85;108191;1250;72513;-67
2023/10/31 07:22:13;;;;;;;31.60;14.20;;;;;;;23.14;38.91;99817.50;108234;1250;60900;-67
2023/10/31 07:24:40;;;;;;;35.30;14.20;;;;;;;23.53;38.31;99814.73;108287;1251;60470;-68
2023/10/31 07:27:07;;;;;;;30.10;13.90;;;;;;;23.75;37.05;99812.99;108271;1250;73008;-68
2023/10/31 07:29:33;;;;;;;29.40;15.80;;;;;;;23.72;36.98;99810.77;108253;1251;70413;-68
2023/10/31 07:32:00;;;;;;;39.30;16.50;;;;;;;23.92;36.92;99812.42;108363;1250;72706;-66
2023/10/31 07:34:29;;;;;;;37.60;15.70;;;;;;;23.93;37.04;99821.85;108263;1251;60182;-67
2023/10/31 07:36:56;;;;;;;33.80;15.00;;;;;;;24.06;36.96;99829.48;108296;1254;59477;-67
2023/10/31 07:39:23;;;;;;;34.80;16.10;;;;;;;24.16;36.74;99830.34;108305;1251;72150;-67
2023/10/31 07:41:49;;;;;;;33.50;15.00;;;;;;;24.16;36.62;99831.42;108293;1250;70699;-66
2023/10/31 07:44:17;;;;;;;31.70;14.00;;;;;;;23.97;36.58;99832.04;108222;1252;71525;-65
2023/10/31 07:46:43;;;;;;;32.50;14.60;;;;;;;23.80;36.80;99829.92;108224;1250;60341;-66
2023/10/31 07:49:10;;;;;;;30.50;12.50;;;;;;;24.07;36.47;99827.84;108215;1251;59497;-66
2023/10/31 07:51:37;;;;;;;27.50;12.50;;;;;;;24.12;36.33;99826.18;108235;1250;73084;-66
2023/10/31 07:54:03;;;;;;;30.20;11.70;;;;;;;23.94;36.63;99818.52;108234;1251;70159;-66
2023/10/31 07:56:32;;;;;;;29.40;10.90;;;;;;;23.88;36.72;99811.20;108202;1251;73368;-67
2023/10/31 07:58:59;;;;;;;28.90;11.50;;;;;;;23.99;36.78;99809.19;108197;1251;60174;-66
2023/10/31 08:01:26;;;;;;;25.60;10.70;;;;;;;24.47;36.16;99810.40;108209;1250;60174;-66
2023/10/31 08:03:53;;;;;;;25.10;10.30;;;;;;;25.03;35.41;99811.98;108239;1250;72072;-66
2023/10/31 08:06:19;;;;;;;22.50;10.40;;;;;;;25.20;34.96;99811.23;108280;1250;70139;-66
2023/10/31 08:08:47;;;;;;;23.40;10.90;;;;;;;25.43;34.72;99804.06;108221;1250;73578;-68
2023/10/31 08:11:13;;;;;;;27.00;10.20;;;;;;;25.64;34.52;99806.29;108211;1251;60338;-67
2023/10/31 08:13:40;;;;;;;23.80;10.10;;;;;;;25.63;34.34;99799.07;108261;1254;60486;-68
2023/10/31 08:16:07;;;;;;;24.80;10.20;;;;;;;25.89;34.12;99793.21;108311;1250;72693;-68
2023/10/31 08:18:34;;;;;;;17.10;8.70;;;;;;;26.21;33.33;99790.59;108256;1251;70103;-67
2023/10/31 08:21:01;;;;;;;21.30;9.90;;;;;;;26.77;32.68;99792.54;108315;1249;72498;-68
2023/10/31 08:23:28;;;;;;;19.50;8.30;;;;;;;27.55;31.55;99783.33;108429;1250;60376;-67
2023/10/31 08:25:55;;;;;;;24.60;9.00;;;;;;;27.99;30.60;99778.45;108459;1249;60217;-66
2023/10/31 08:28:22;;;;;;;19.10;9.00;;;;;;;28.47;30.25;99779.88;108446;1249;73080;-68
2023/10/31 08:30:48;;;;;;;16.30;8.10;;;;;;;28.85;29.44;99780.90;108489;1250;59505;-68
2023/10/31 08:33:15;;;;;;;19.40;8.80;;;;;;;28.77;29.38;99772.58;108425;1253;71218;-68
2023/10/31 08:35:42;;;;;;;22.10;9.00;;;;;;;28.93;29.23;99771.20;108437;1250;59662;-67
2023/10/31 08:38:09;;;;;;;17.80;7.60;;;;;;;29.06;28.82;99771.67;108483;1250;60079;-67
2023/10/31 08:40:50;;;;;;;16.90;7.10;;;;;;;29.09;28.32;99767.70;108414;1250;74236;-68
2023/10/31 08:43:16;;;;;;;16.10;8.30;;;;;;;29.46;28.34;99766.20;108482;1249;70424;-68
2023/10/31 08:45:43;;;;;;;18.70;8.10;;;;;;;29.96;27.77;99759.86;108459;1250;72728;-68
2023/10/31 08:48:11;;;;;;;17.80;7.00;;;;;;;30.33;27.34;99753.33;108432;1250;60267;-66
2023/10/31 08:50:38;;;;;;;20.20;7.70;;;;;;;30.62;26.81;99752.90;108440;1251;60117;-67
2023/10/31 08:53:04;;;;;;;16.00;6.60;;;;;;;30.54;26.54;99748.86;108460;1251;74028;-67
2023/10/31 08:55:31;;;;;;;18.00;6.30;;;;;;;30.54;26.35;99743.98;108452;1250;70338;-67
2023/10/31 08:57:58;;;;;;;17.80;7.40;;;;;;;30.56;26.06;99738.05;108455;1250;73871;-68
2023/10/31 09:00:26;;;;;;;23.00;7.50;;;;;;;31.00;26.15;99736.77;108383;1250;60380;-68
2023/10/31 09:02:52;;;;;;;17.60;7.50;;;;;;;31.47;25.39;99730.38;108265;1250;60287;-68
2023/10/31 09:05:19;;;;;;;15.30;7.30;;;;;;;32.10;25.40;99725.84;108263;1251;73678;-68
2023/10/31 09:07:46;;;;;;;24.10;7.40;;;;;;;32.60;24.46;99722.05;108287;1250;71008;-66
2023/10/31 09:10:13;;;;;;;16.00;6.60;;;;;;;32.46;24.63;99719.23;108286;1251;71453;-68
2023/10/31 09:12:39;;;;;;;23.40;7.00;;;;;;;32.41;24.57;99712.15;108229;1254;61344;-68
2023/10/31 09:15:06;;;;;;;15.80;5.90;;;;;;;32.32;24.32;99702.23;108238;1250;60353;-69
2023/10/31 09:17:33;;;;;;;21.80;7.10;;;;;;;32.27;24.10;99710.77;108252;1250;74187;-67
2023/10/31 09:20:00;;;;;;;16.90;6.40;;;;;;;31.84;24.41;99706.58;108272;1250;70829;-68
2023/10/31 09:22:27;;;;;;;18.60;6.00;;;;;;;31.50;24.77;99703.20;108328;1256;73825;-68
2023/10/31 09:24:53;;;;;;;14.70;5.70;;;;;;;31.06;25.40;99701.62;108210;1251;60484;-68
2023/10/31 09:27:20;;;;;;;16.00;6.50;;;;;;;31.43;25.29;99693.71;108260;1251;61667;-68
2023/10/31 09:29:47;;;;;;;18.40;7.10;;;;;;;31.53;25.04;99691.41;108228;1250;74035;-69
2023/10/31 09:32:14;;;;;;;23.60;6.90;;;;;;;31.64;25.11;99686.95;108259;1251;69608;-68
2023/10/31 09:34:41;;;;;;;27.90;8.90;;;;;;;31.75;24.93;99686.16;108302;1250;71281;-67
2023/10/31 09:37:08;;;;;;;12.70;6.20;;;;;;;31.82;25.10;99685.38;108288;1254;60288;-67
2023/10/31 09:39:34;;;;;;;24.00;8.10;;;;;;;31.57;25.23;99684.89;108246;1251;60379;-66
2023/10/31 09:42:01;;;;;;;18.50;7.20;;;;;;;31.29;25.42;99679.65;108264;1251;75212;-67
2023/10/31 09:44:28;;;;;;;18.50;7.50;;;;;;;31.37;25.84;99672.23;108367;1250;71634;-67
2023/10/31 09:46:55;;;;;;;17.60;6.90;;;;;;;31.63;25.61;99667.48;108202;1250;73918;-68
2023/10/31 09:49:22;;;;;;;19.70;6.60;;;;;;;31.84;25.50;99661.52;108240;1250;60451;-68
2023/10/31 09:51:49;;;;;;;21.50;6.50;;;;;;;32.24;25.55;99661.66;108223;1250;61509;-68
2023/10/31 09:54:16;;;;;;;25.30;7.30;;;;;;;32.89;24.80;99653.95;108223;1251;73869;-68
2023/10/31 09:56:43;;;;;;;13.40;6.10;;;;;;;33.45;24.04;99654.86;108294;1251;68755;-68
2023/10/31 09:59:10;;;;;;;11.70;5.60;;;;;;;33.60;23.68;99651.48;108209;1254;73536;-68
2023/10/31 10:01:36;;;;;;;13.60;6.00;;;;;;;33.52;23.58;99651.71;108224;1251;60316;-67
2023/10/31 10:04:03;;;;;;;11.00;5.10;;;;;;;33.79;23.59;99646.84;108236;1251;60433;-67
2023/10/31 10:06:30;;;;;;;11.60;5.00;;;;;;;34.18;23.31;99644.40;108390;1250;73518;-66
2023/10/31 10:10:01;;;;;;;13.90;5.30;;;;;;;33.61;24.05;99635.62;104931;1290;600449;-67
2023/10/31 10:12:29;;;;;;;18.70;5.40;;;;;;;34.90;22.84;99625.40;107369;1264;59266;-68
2023/10/31 10:14:57;;;;;;;16.10;5.00;;;;;;;35.28;22.18;99631.94;107299;1267;59193;-67
2023/10/31 10:17:24;;;;;;;13.90;4.70;;;;;;;35.47;22.16;99627.84;107296;1264;74432;-67
2023/10/31 10:20:07;;;;;;;11.80;4.70;;;;;;;35.60;22.01;99635.37;107375;1269;72969;-69
2023/10/31 10:22:42;;;;;;;9.20;4.30;;;;;;;35.51;21.64;99636.66;107238;1265;182854;-69
2023/10/31 10:25:18;;;;;;;16.50;5.20;;;;;;;34.44;22.50;99644.85;107924;1261;61434;-68
2023/10/31 10:27:46;;;;;;;13.60;4.80;;;;;;;33.40;23.76;99644.46;107953;1260;62264;-68
2023/10/31 10:30:14;;;;;;;12.80;4.80;;;;;;;32.75;24.65;99643.41;107959;1256;71266;-68
2023/10/31 10:32:41;;;;;;;12.00;4.30;;;;;;;32.51;25.11;99640.61;107948;1257;69373;-68
2023/10/31 10:35:09;;;;;;;11.80;4.70;;;;;;;31.94;25.85;99647.18;108203;1253;72768;-68
2023/10/31 10:37:37;;;;;;;12.30;5.00;;;;;;;31.96;25.86;99641.94;108199;1254;62254;-68
2023/10/31 10:40:10;;;;;;;18.90;5.00;;;;;;;31.76;26.18;99638.47;108160;1254;59703;-67
2023/10/31 10:42:47;;;;;;;10.60;4.10;;;;;;;31.00;26.87;99637.85;108192;1254;71931;-67
2023/10/31 10:45:17;;;;;;;11.20;4.00;;;;;;;30.56;27.59;99632.78;108136;1254;71921;-68
2023/10/31 10:47:46;;;;;;;16.90;4.80;;;;;;;30.70;27.56;99629.91;108140;1253;74974;-67
2023/10/31 10:50:15;;;;;;;10.90;4.50;;;;;;;31.23;27.14;99621.42;108171;1254;59128;-68
2023/10/31 10:52:50;;;;;;;17.10;5.10;;;;;;;31.46;26.97;99621.85;108181;1253;61873;-68
2023/10/31 10:55:24;;;;;;;11.90;4.50;;;;;;;31.74;26.62;99620.58;108153;1254;75393;-67
2023/10/31 10:58:05;;;;;;;13.10;4.60;;;;;;;31.69;26.77;99621.95;108195;1254;69253;-69
2023/10/31 11:00:32;;;;;;;17.30;4.40;;;;;;;31.62;26.98;99619.42;108198;1254;73695;-68
2023/10/31 11:03:00;;;;;;;11.80;4.90;;;;;;;31.94;26.64;99607.79;108101;1254;61187;-67
2023/10/31 11:05:28;;;;;;;11.60;4.40;;;;;;;32.32;26.60;99606.25;108043;1253;61147;-67
2023/10/31 11:07:56;;;;;;;10.00;4.00;;;;;;;32.17;26.37;99604.63;108107;1253;73814;-68
2023/10/31 11:10:26;;;;;;;10.70;5.10;;;;;;;32.09;26.57;99602.95;107917;1254;70801;-67
2023/10/31 11:12:54;;;;;;;10.10;4.30;;;;;;;32.00;26.75;99601.10;108251;1253;74103;-68
2023/10/31 11:15:22;;;;;;;8.70;4.10;;;;;;;31.87;27.01;99605.35;108177;1254;60143;-67
2023/10/31 11:17:50;;;;;;;9.20;4.00;;;;;;;32.11;26.87;99598.52;108273;1254;60532;-68